sensor_id;sensor_type;location;lat;lon;timestamp;pressure;altitude;pressure_sealevel;temperature;humidity
54042;BME280;41156;51.508;5.406;2024-01-15T00:01:36;100304.25;;;0.16;100.00
54042;BME280;41156;51.508;5.406;2024-01-15T00:04:37;100303.44;;;0.15;100.00
54042;BME280;41156;51.508;5.406;2024-01-15T00:07:38;100296.59;;;0.13;100.00
54042;BME280;41156;51.508;5.406;2024-01-15T00:10:38;100301.09;;;0.12;100.00
54042;BME280;41156;51.508;5.406;2024-01-15T00:13:40;100297.31;;;0.31;100.00
54042;BME280;41156;51.508;5.406;2024-01-15T00:16:40;100292.03;;;0.40;100.00
54042;BME280;41156;51.508;5.406;2024-01-15T00:19:41;100290.31;;;0.14;100.00
54042;BME280;41156;51.508;5.406;2024-01-15T00:22:41;100285.94;;;0.05;100.00
54042;BME280;41156;51.508;5.406;2024-01-15T00:25:42;100278.31;;;0.10;100.00
54042;BME280;41156;51.508;5.406;2024-01-15T00:28:42;100278.94;;;-0.05;100.00
54042;BME280;41156;51.508;5.406;2024-01-15T00:31:42;100281.56;;;-0.13;100.00
54042;BME280;41156;51.508;5.406;2024-01-15T00:34:43;100276.72;;;-0.17;100.00
54042;BME280;41156;51.508;5.406;2024-01-15T00:37:43;100274.31;;;0.06;100.00
54042;BME280;41156;51.508;5.406;2024-01-15T00:40:43;100267.16;;;-0.02;100.00
54042;BME280;41156;51.508;5.406;2024-01-15T00:43:44;100256.81;;;-0.13;100.00
54042;BME280;41156;51.508;5.406;2024-01-15T00:46:45;100254.97;;;-0.21;100.00
54042;BME280;41156;51.508;5.406;2024-01-15T00:49:46;100251.63;;;-0.23;100.00
54042;BME280;41156;51.508;5.406;2024-01-15T00:52:46;100250.63;;;-0.22;100.00
54042;BME280;41156;51.508;5.406;2024-01-15T00:55:46;100248.25;;;0.01;100.00
54042;BME280;41156;51.508;5.406;2024-01-15T00:58:47;100239.81;;;0.14;100.00
54042;BME280;41156;51.508;5.406;2024-01-15T01:01:47;100240.66;;;0.23;100.00
54042;BME280;41156;51.508;5.406;2024-01-15T01:04:47;100238.84;;;0.31;100.00
54042;BME280;41156;51.508;5.406;2024-01-15T01:07:47;100241.19;;;0.34;100.00
54042;BME280;41156;51.508;5.406;2024-01-15T01:10:48;100241.69;;;0.38;100.00
54042;BME280;41156;51.508;5.406;2024-01-15T01:13:48;100236.22;;;0.40;100.00
54042;BME280;41156;51.508;5.406;2024-01-15T01:16:48;100240.31;;;0.17;100.00
54042;BME280;41156;51.508;5.406;2024-01-15T01:19:49;100234.66;;;0.12;100.00
54042;BME280;41156;51.508;5.406;2024-01-15T01:22:49;100230.72;;;0.33;100.00
54042;BME280;41156;51.508;5.406;2024-01-15T01:25:50;100222.88;;;0.15;100.00
54042;BME280;41156;51.508;5.406;2024-01-15T01:28:50;100227.06;;;0.34;100.00
54042;BME280;41156;51.508;5.406;2024-01-15T01:31:50;100223.06;;;0.30;100.00
54042;BME280;41156;51.508;5.406;2024-01-15T01:34:51;100237.09;;;-0.03;100.00
54042;BME280;41156;51.508;5.406;2024-01-15T01:37:51;100229.31;;;0.04;100.00
54042;BME280;41156;51.508;5.406;2024-01-15T01:40:51;100238.75;;;-0.10;100.00
54042;BME280;41156;51.508;5.406;2024-01-15T01:43:51;100238.56;;;-0.16;100.00
54042;BME280;41156;51.508;5.406;2024-01-15T01:46:52;100236.41;;;-0.13;100.00
54042;BME280;41156;51.508;5.406;2024-01-15T01:49:53;100231.03;;;0.13;100.00
54042;BME280;41156;51.508;5.406;2024-01-15T01:52:55;100228.56;;;0.20;100.00
54042;BME280;41156;51.508;5.406;2024-01-15T01:55:57;100228.16;;;-0.02;100.00
54042;BME280;41156;51.508;5.406;2024-01-15T01:58:57;100233.63;;;-0.03;100.00
54042;BME280;41156;51.508;5.406;2024-01-15T02:02:00;100227.34;;;0.06;100.00
54042;BME280;41156;51.508;5.406;2024-01-15T02:05:03;100223.53;;;0.09;100.00
54042;BME280;41156;51.508;5.406;2024-01-15T02:08:04;100230.84;;;0.07;100.00
54042;BME280;41156;51.508;5.406;2024-01-15T02:11:04;100223.84;;;0.06;100.00
54042;BME280;41156;51.508;5.406;2024-01-15T02:14:04;100231.16;;;0.04;100.00
54042;BME280;41156;51.508;5.406;2024-01-15T02:17:05;100233.13;;;0.02;100.00
54042;BME280;41156;51.508;5.406;2024-01-15T02:20:06;100226.66;;;0.04;100.00
54042;BME280;41156;51.508;5.406;2024-01-15T02:23:13;100235.13;;;0.08;100.00
54042;BME280;41156;51.508;5.406;2024-01-15T02:26:14;100224.34;;;0.09;100.00
54042;BME280;41156;51.508;5.406;2024-01-15T02:29:14;100220.88;;;0.09;100.00
54042;BME280;41156;51.508;5.406;2024-01-15T02:32:15;100217.03;;;0.03;100.00
54042;BME280;41156;51.508;5.406;2024-01-15T02:35:15;100219.50;;;-0.04;100.00
54042;BME280;41156;51.508;5.406;2024-01-15T02:38:16;100217.34;;;-0.08;100.00
54042;BME280;41156;51.508;5.406;2024-01-15T02:41:16;100222.97;;;-0.11;100.00
54042;BME280;41156;51.508;5.406;2024-01-15T02:44:17;100226.75;;;-0.14;100.00
54042;BME280;41156;51.508;5.406;2024-01-15T02:47:17;100226.09;;;-0.16;100.00
54042;BME280;41156;51.508;5.406;2024-01-15T02:50:17;100214.66;;;-0.16;100.00
54042;BME280;41156;51.508;5.406;2024-01-15T02:53:17;100222.09;;;-0.20;100.00
54042;BME280;41156;51.508;5.406;2024-01-15T02:56:18;100219.47;;;-0.54;100.00
54042;BME280;41156;51.508;5.406;2024-01-15T02:59:18;100213.28;;;-0.63;100.00
54042;BME280;41156;51.508;5.406;2024-01-15T03:02:18;100221.72;;;-0.68;100.00
54042;BME280;41156;51.508;5.406;2024-01-15T03:05:19;100224.22;;;-0.66;100.00
54042;BME280;41156;51.508;5.406;2024-01-15T03:08:20;100237.81;;;-0.35;100.00
54042;BME280;41156;51.508;5.406;2024-01-15T03:11:20;100225.09;;;-0.23;100.00
54042;BME280;41156;51.508;5.406;2024-01-15T03:14:20;100240.88;;;-0.13;100.00
54042;BME280;41156;51.508;5.406;2024-01-15T03:17:21;100229.78;;;-0.09;100.00
54042;BME280;41156;51.508;5.406;2024-01-15T03:20:21;100226.13;;;-0.08;100.00
54042;BME280;41156;51.508;5.406;2024-01-15T03:23:21;100230.63;;;-0.08;100.00
54042;BME280;41156;51.508;5.406;2024-01-15T03:26:22;100225.63;;;-0.11;100.00
54042;BME280;41156;51.508;5.406;2024-01-15T03:29:22;100227.09;;;-0.17;100.00
54042;BME280;41156;51.508;5.406;2024-01-15T03:32:23;100219.44;;;-0.20;100.00
54042;BME280;41156;51.508;5.406;2024-01-15T03:35:23;100218.94;;;-0.24;100.00
54042;BME280;41156;51.508;5.406;2024-01-15T03:38:23;100220.09;;;-0.26;100.00
54042;BME280;41156;51.508;5.406;2024-01-15T03:41:24;100227.53;;;-0.30;100.00
54042;BME280;41156;51.508;5.406;2024-01-15T03:44:24;100217.78;;;-0.21;100.00
54042;BME280;41156;51.508;5.406;2024-01-15T03:47:26;100212.34;;;-0.11;100.00
54042;BME280;41156;51.508;5.406;2024-01-15T03:50:26;100206.72;;;-0.08;100.00
54042;BME280;41156;51.508;5.406;2024-01-15T03:53:26;100208.88;;;-0.04;100.00
54042;BME280;41156;51.508;5.406;2024-01-15T03:56:27;100204.09;;;0.00;100.00
54042;BME280;41156;51.508;5.406;2024-01-15T03:59:27;100198.97;;;0.07;100.00
54042;BME280;41156;51.508;5.406;2024-01-15T04:02:27;100194.16;;;0.10;100.00
54042;BME280;41156;51.508;5.406;2024-01-15T04:05:28;100188.50;;;0.13;100.00
54042;BME280;41156;51.508;5.406;2024-01-15T04:08:28;100184.78;;;-0.10;100.00
54042;BME280;41156;51.508;5.406;2024-01-15T04:11:28;100183.78;;;-0.17;100.00
54042;BME280;41156;51.508;5.406;2024-01-15T04:14:29;100182.66;;;0.10;100.00
54042;BME280;41156;51.508;5.406;2024-01-15T04:17:29;100181.53;;;0.21;100.00
54042;BME280;41156;51.508;5.406;2024-01-15T04:20:29;100180.03;;;0.26;100.00
54042;BME280;41156;51.508;5.406;2024-01-15T04:23:29;100176.03;;;0.06;100.00
54042;BME280;41156;51.508;5.406;2024-01-15T04:26:30;100178.00;;;-0.05;100.00
54042;BME280;41156;51.508;5.406;2024-01-15T04:29:30;100170.03;;;-0.05;100.00
54042;BME280;41156;51.508;5.406;2024-01-15T04:32:30;100166.44;;;0.38;100.00
54042;BME280;41156;51.508;5.406;2024-01-15T04:35:31;100169.09;;;0.46;100.00
54042;BME280;41156;51.508;5.406;2024-01-15T04:38:31;100175.56;;;0.51;100.00
54042;BME280;41156;51.508;5.406;2024-01-15T04:41:33;100169.78;;;0.56;100.00
54042;BME280;41156;51.508;5.406;2024-01-15T04:44:33;100174.59;;;0.61;100.00
54042;BME280;41156;51.508;5.406;2024-01-15T04:47:34;100171.78;;;0.62;100.00
54042;BME280;41156;51.508;5.406;2024-01-15T04:50:34;100171.44;;;0.57;100.00
54042;BME280;41156;51.508;5.406;2024-01-15T04:53:34;100163.31;;;0.50;100.00
54042;BME280;41156;51.508;5.406;2024-01-15T04:56:35;100164.75;;;0.04;100.00
54042;BME280;41156;51.508;5.406;2024-01-15T04:59:35;100168.09;;;0.30;100.00
54042;BME280;41156;51.508;5.406;2024-01-15T05:02:35;100155.13;;;0.19;100.00
54042;BME280;41156;51.508;5.406;2024-01-15T05:05:35;100166.13;;;0.32;100.00
54042;BME280;41156;51.508;5.406;2024-01-15T05:08:36;100173.91;;;0.34;100.00
54042;BME280;41156;51.508;5.406;2024-01-15T05:11:36;100165.28;;;0.40;100.00
54042;BME280;41156;51.508;5.406;2024-01-15T05:14:36;100158.81;;;0.43;100.00
54042;BME280;41156;51.508;5.406;2024-01-15T05:17:37;100150.81;;;0.43;100.00
54042;BME280;41156;51.508;5.406;2024-01-15T05:20:37;100144.84;;;0.41;100.00
54042;BME280;41156;51.508;5.406;2024-01-15T05:23:37;100140.53;;;0.40;100.00
54042;BME280;41156;51.508;5.406;2024-01-15T05:26:38;100140.84;;;0.36;100.00
54042;BME280;41156;51.508;5.406;2024-01-15T05:29:38;100140.50;;;0.31;100.00
54042;BME280;41156;51.508;5.406;2024-01-15T05:32:39;100136.88;;;0.24;100.00
54042;BME280;41156;51.508;5.406;2024-01-15T05:35:39;100132.91;;;0.20;100.00
54042;BME280;41156;51.508;5.406;2024-01-15T05:38:39;100137.34;;;0.20;100.00
54042;BME280;41156;51.508;5.406;2024-01-15T05:41:40;100129.88;;;0.23;100.00
54042;BME280;41156;51.508;5.406;2024-01-15T05:44:40;100132.88;;;0.28;100.00
54042;BME280;41156;51.508;5.406;2024-01-15T05:47:40;100130.56;;;0.33;100.00
54042;BME280;41156;51.508;5.406;2024-01-15T05:50:41;100132.53;;;0.40;100.00
54042;BME280;41156;51.508;5.406;2024-01-15T05:53:41;100135.53;;;0.45;100.00
54042;BME280;41156;51.508;5.406;2024-01-15T05:56:44;100127.22;;;0.48;100.00
54042;BME280;41156;51.508;5.406;2024-01-15T05:59:44;100117.44;;;0.48;100.00
54042;BME280;41156;51.508;5.406;2024-01-15T06:02:45;100122.56;;;0.50;100.00
54042;BME280;41156;51.508;5.406;2024-01-15T06:05:45;100125.06;;;0.51;100.00
54042;BME280;41156;51.508;5.406;2024-01-15T06:08:45;100125.75;;;0.53;100.00
54042;BME280;41156;51.508;5.406;2024-01-15T06:11:46;100117.63;;;0.55;100.00
54042;BME280;41156;51.508;5.406;2024-01-15T06:14:46;100112.09;;;0.57;100.00
54042;BME280;41156;51.508;5.406;2024-01-15T06:17:46;100109.44;;;0.57;100.00
54042;BME280;41156;51.508;5.406;2024-01-15T06:20:47;100113.59;;;0.59;100.00
54042;BME280;41156;51.508;5.406;2024-01-15T06:23:47;100115.44;;;0.59;100.00
54042;BME280;41156;51.508;5.406;2024-01-15T06:26:47;100112.94;;;0.57;100.00
54042;BME280;41156;51.508;5.406;2024-01-15T06:29:48;100111.13;;;0.58;100.00
54042;BME280;41156;51.508;5.406;2024-01-15T06:32:48;100109.97;;;0.60;100.00
54042;BME280;41156;51.508;5.406;2024-01-15T06:35:48;100106.94;;;0.63;100.00
54042;BME280;41156;51.508;5.406;2024-01-15T06:38:49;100106.94;;;0.63;100.00
54042;BME280;41156;51.508;5.406;2024-01-15T06:41:49;100107.78;;;0.64;100.00
54042;BME280;41156;51.508;5.406;2024-01-15T06:44:50;100115.59;;;0.65;100.00
54042;BME280;41156;51.508;5.406;2024-01-15T06:47:50;100123.09;;;0.62;100.00
54042;BME280;41156;51.508;5.406;2024-01-15T06:50:50;100117.25;;;0.58;100.00
54042;BME280;41156;51.508;5.406;2024-01-15T06:53:51;100105.31;;;0.54;100.00
54042;BME280;41156;51.508;5.406;2024-01-15T06:56:51;100112.13;;;0.48;100.00
54042;BME280;41156;51.508;5.406;2024-01-15T06:59:51;100109.97;;;0.44;100.00
54042;BME280;41156;51.508;5.406;2024-01-15T07:02:51;100110.13;;;0.42;100.00
54042;BME280;41156;51.508;5.406;2024-01-15T07:05:52;100107.81;;;0.39;100.00
54042;BME280;41156;51.508;5.406;2024-01-15T07:08:52;100100.81;;;0.38;100.00
54042;BME280;41156;51.508;5.406;2024-01-15T07:11:52;100110.47;;;0.39;100.00
54042;BME280;41156;51.508;5.406;2024-01-15T07:14:54;100117.63;;;0.39;100.00
54042;BME280;41156;51.508;5.406;2024-01-15T07:17:55;100111.44;;;0.38;100.00
54042;BME280;41156;51.508;5.406;2024-01-15T07:20:55;100110.78;;;0.36;100.00
54042;BME280;41156;51.508;5.406;2024-01-15T07:23:55;100110.28;;;0.32;100.00
54042;BME280;41156;51.508;5.406;2024-01-15T07:26:55;100113.78;;;0.33;100.00
54042;BME280;41156;51.508;5.406;2024-01-15T07:29:56;100119.94;;;0.33;100.00
54042;BME280;41156;51.508;5.406;2024-01-15T07:32:56;100111.78;;;0.35;100.00
54042;BME280;41156;51.508;5.406;2024-01-15T07:35:56;100106.47;;;0.35;100.00
54042;BME280;41156;51.508;5.406;2024-01-15T07:38:57;100106.28;;;0.36;100.00
54042;BME280;41156;51.508;5.406;2024-01-15T07:41:57;100115.13;;;0.37;100.00
54042;BME280;41156;51.508;5.406;2024-01-15T07:44:57;100115.94;;;0.38;100.00
54042;BME280;41156;51.508;5.406;2024-01-15T07:47:58;100110.63;;;0.38;100.00
54042;BME280;41156;51.508;5.406;2024-01-15T07:50:58;100119.25;;;0.40;100.00
54042;BME280;41156;51.508;5.406;2024-01-15T07:53:59;100121.09;;;0.39;100.00
54042;BME280;41156;51.508;5.406;2024-01-15T07:57:01;100124.75;;;0.38;100.00
54042;BME280;41156;51.508;5.406;2024-01-15T08:00:03;100136.06;;;0.40;100.00
54042;BME280;41156;51.508;5.406;2024-01-15T08:03:05;100137.69;;;0.41;100.00
54042;BME280;41156;51.508;5.406;2024-01-15T08:06:06;100134.88;;;0.43;100.00
54042;BME280;41156;51.508;5.406;2024-01-15T08:09:07;100143.50;;;0.45;100.00
54042;BME280;41156;51.508;5.406;2024-01-15T08:12:08;100146.00;;;0.46;100.00
54042;BME280;41156;51.508;5.406;2024-01-15T08:15:11;100146.00;;;0.46;100.00
54042;BME280;41156;51.508;5.406;2024-01-15T08:18:11;100150.34;;;0.47;100.00
54042;BME280;41156;51.508;5.406;2024-01-15T08:21:11;100147.50;;;0.49;100.00
54042;BME280;41156;51.508;5.406;2024-01-15T08:24:12;100148.34;;;0.49;100.00
54042;BME280;41156;51.508;5.406;2024-01-15T08:27:12;100146.34;;;0.51;100.00
54042;BME280;41156;51.508;5.406;2024-01-15T08:30:13;100150.00;;;0.50;100.00
54042;BME280;41156;51.508;5.406;2024-01-15T08:33:13;100143.69;;;0.51;100.00
54042;BME280;41156;51.508;5.406;2024-01-15T08:36:13;100149.84;;;0.52;100.00
54042;BME280;41156;51.508;5.406;2024-01-15T08:39:14;100158.16;;;0.57;100.00
54042;BME280;41156;51.508;5.406;2024-01-15T08:42:14;100154.63;;;0.57;100.00
54042;BME280;41156;51.508;5.406;2024-01-15T08:45:14;100152.84;;;0.57;100.00
54042;BME280;41156;51.508;5.406;2024-01-15T08:48:15;100152.84;;;0.57;100.00
54042;BME280;41156;51.508;5.406;2024-01-15T08:51:15;100146.66;;;0.57;100.00
54042;BME280;41156;51.508;5.406;2024-01-15T08:54:15;100153.00;;;0.55;100.00
54042;BME280;41156;51.508;5.406;2024-01-15T08:57:16;100151.31;;;0.54;100.00
54042;BME280;41156;51.508;5.406;2024-01-15T09:00:16;100153.00;;;0.55;100.00
54042;BME280;41156;51.508;5.406;2024-01-15T09:03:17;100154.47;;;0.58;100.00
54042;BME280;41156;51.508;5.406;2024-01-15T09:06:17;100157.13;;;0.58;100.00
54042;BME280;41156;51.508;5.406;2024-01-15T09:09:18;100142.84;;;0.59;100.00
54042;BME280;41156;51.508;5.406;2024-01-15T09:12:18;100157.47;;;0.63;100.00
54042;BME280;41156;51.508;5.406;2024-01-15T09:15:20;100158.31;;;0.64;100.00
54042;BME280;41156;51.508;5.406;2024-01-15T09:18:21;100155.66;;;0.64;100.00
54042;BME280;41156;51.508;5.406;2024-01-15T09:21:21;100161.47;;;0.67;100.00
54042;BME280;41156;51.508;5.406;2024-01-15T09:24:21;100166.63;;;0.69;100.00
54042;BME280;41156;51.508;5.406;2024-01-15T09:27:23;100166.28;;;0.72;100.00
54042;BME280;41156;51.508;5.406;2024-01-15T09:30:26;100154.44;;;0.99;100.00
54042;BME280;41156;51.508;5.406;2024-01-15T09:33:26;100146.31;;;0.92;100.00
54042;BME280;41156;51.508;5.406;2024-01-15T15:03:20;100347.91;;;0.56;100.00
54042;BME280;41156;51.508;5.406;2024-01-15T15:06:21;100368.34;;;0.55;100.00
54042;BME280;41156;51.508;5.406;2024-01-15T15:09:21;100373.09;;;0.35;100.00
54042;BME280;41156;51.508;5.406;2024-01-15T15:12:22;100390.41;;;0.48;100.00
54042;BME280;41156;51.508;5.406;2024-01-15T15:15:23;100383.28;;;0.57;100.00
54042;BME280;41156;51.508;5.406;2024-01-15T15:18:26;100363.19;;;0.54;100.00
54042;BME280;41156;51.508;5.406;2024-01-15T15:21:26;100378.31;;;0.53;100.00
54042;BME280;41156;51.508;5.406;2024-01-15T15:24:28;100385.09;;;0.48;100.00
54042;BME280;41156;51.508;5.406;2024-01-15T15:27:29;100379.75;;;0.40;100.00
54042;BME280;41156;51.508;5.406;2024-01-15T15:30:29;100378.88;;;0.31;100.00
54042;BME280;41156;51.508;5.406;2024-01-15T15:33:29;100381.66;;;0.21;100.00
54042;BME280;41156;51.508;5.406;2024-01-15T15:36:29;100375.28;;;-0.21;100.00
54042;BME280;41156;51.508;5.406;2024-01-15T15:39:30;100381.00;;;-0.33;100.00
54042;BME280;41156;51.508;5.406;2024-01-15T15:42:31;100391.59;;;-0.42;100.00
54042;BME280;41156;51.508;5.406;2024-01-15T15:45:31;100385.88;;;-0.47;100.00
54042;BME280;41156;51.508;5.406;2024-01-15T15:48:31;100392.63;;;-0.34;100.00
54042;BME280;41156;51.508;5.406;2024-01-15T15:51:32;100395.03;;;-0.23;100.00
54042;BME280;41156;51.508;5.406;2024-01-15T15:54:33;100403.66;;;-0.21;100.00
54042;BME280;41156;51.508;5.406;2024-01-15T15:57:33;100411.53;;;-0.56;100.00
54042;BME280;41156;51.508;5.406;2024-01-15T16:00:34;100422.44;;;-0.59;100.00
54042;BME280;41156;51.508;5.406;2024-01-15T16:03:34;100422.22;;;-0.65;100.00
54042;BME280;41156;51.508;5.406;2024-01-15T16:06:34;100437.31;;;-0.66;100.00
54042;BME280;41156;51.508;5.406;2024-01-15T16:09:35;100436.19;;;-0.63;100.00
54042;BME280;41156;51.508;5.406;2024-01-15T16:12:36;100437.53;;;-0.59;100.00
54042;BME280;41156;51.508;5.406;2024-01-15T16:15:36;100449.84;;;-0.58;100.00
54042;BME280;41156;51.508;5.406;2024-01-15T16:18:36;100450.97;;;-0.61;100.00
54042;BME280;41156;51.508;5.406;2024-01-15T16:21:37;100443.75;;;-0.32;100.00
54042;BME280;41156;51.508;5.406;2024-01-15T16:24:37;100467.03;;;-0.62;100.00
54042;BME280;41156;51.508;5.406;2024-01-15T16:27:38;100467.66;;;-0.50;100.00
54042;BME280;41156;51.508;5.406;2024-01-15T16:30:38;100463.94;;;-0.40;100.00
54042;BME280;41156;51.508;5.406;2024-01-15T16:33:39;100463.38;;;-0.25;100.00
54042;BME280;41156;51.508;5.406;2024-01-15T16:36:39;100465.72;;;-0.22;100.00
54042;BME280;41156;51.508;5.406;2024-01-15T16:39:41;100455.56;;;-0.27;100.00
54042;BME280;41156;51.508;5.406;2024-01-15T16:42:41;100463.53;;;-0.27;100.00
54042;BME280;41156;51.508;5.406;2024-01-15T16:45:41;100465.50;;;-0.29;100.00
54042;BME280;41156;51.508;5.406;2024-01-15T16:48:42;100484.09;;;-0.29;100.00
54042;BME280;41156;51.508;5.406;2024-01-15T16:51:42;100492.22;;;-0.30;100.00
54042;BME280;41156;51.508;5.406;2024-01-15T16:54:42;100497.53;;;-0.30;100.00
54042;BME280;41156;51.508;5.406;2024-01-15T16:57:42;100497.66;;;-0.32;100.00
54042;BME280;41156;51.508;5.406;2024-01-15T17:00:43;100485.56;;;-0.34;100.00
54042;BME280;41156;51.508;5.406;2024-01-15T17:03:43;100490.84;;;-0.34;100.00
54042;BME280;41156;51.508;5.406;2024-01-15T17:06:43;100496.16;;;-0.34;100.00
54042;BME280;41156;51.508;5.406;2024-01-15T17:09:44;100494.50;;;-0.35;100.00
54042;BME280;41156;51.508;5.406;2024-01-15T17:12:44;100500.81;;;-0.36;100.00
54042;BME280;41156;51.508;5.406;2024-01-15T17:15:45;100504.59;;;-0.39;100.00
54042;BME280;41156;51.508;5.406;2024-01-15T17:18:45;100506.41;;;-0.40;100.00
54042;BME280;41156;51.508;5.406;2024-01-15T17:21:45;100517.13;;;-0.77;100.00
54042;BME280;41156;51.508;5.406;2024-01-15T17:24:46;100520.69;;;-0.86;100.00
54042;BME280;41156;51.508;5.406;2024-01-15T17:27:46;100522.09;;;-0.92;100.00
54042;BME280;41156;51.508;5.406;2024-01-15T17:30:46;100528.25;;;-0.91;100.00
54042;BME280;41156;51.508;5.406;2024-01-15T17:33:47;100530.88;;;-0.64;100.00
54042;BME280;41156;51.508;5.406;2024-01-15T17:36:47;100526.66;;;-0.57;100.00
54042;BME280;41156;51.508;5.406;2024-01-15T17:39:47;100534.84;;;-0.50;100.00
54042;BME280;41156;51.508;5.406;2024-01-15T17:42:48;100531.88;;;-0.47;100.00
54042;BME280;41156;51.508;5.406;2024-01-15T17:45:59;100539.84;;;-0.47;100.00
54042;BME280;41156;51.508;5.406;2024-01-15T17:49:04;100549.63;;;-0.47;100.00
54042;BME280;41156;51.508;5.406;2024-01-15T17:52:05;100551.13;;;-0.63;100.00
54042;BME280;41156;51.508;5.406;2024-01-15T17:55:06;100555.09;;;-0.49;100.00
54042;BME280;41156;51.508;5.406;2024-01-15T17:58:06;100559.13;;;-0.45;100.00
54042;BME280;41156;51.508;5.406;2024-01-15T18:01:07;100554.50;;;-0.43;100.00
54042;BME280;41156;51.508;5.406;2024-01-15T18:04:08;100560.09;;;-0.46;100.00
54042;BME280;41156;51.508;5.406;2024-01-15T18:07:08;100548.13;;;-0.50;100.00
54042;BME280;41156;51.508;5.406;2024-01-15T18:10:09;100559.88;;;-0.52;100.00
54042;BME280;41156;51.508;5.406;2024-01-15T18:13:09;100566.28;;;-0.55;100.00
54042;BME280;41156;51.508;5.406;2024-01-15T18:16:10;100572.47;;;-0.54;100.00
54042;BME280;41156;51.508;5.406;2024-01-15T18:19:10;100578.31;;;-0.51;100.00
54042;BME280;41156;51.508;5.406;2024-01-15T18:22:26;100585.97;;;-0.48;100.00
54042;BME280;41156;51.508;5.406;2024-01-15T18:25:26;100602.28;;;-0.43;100.00
54042;BME280;41156;51.508;5.406;2024-01-15T18:28:27;100601.69;;;-0.36;100.00
54042;BME280;41156;51.508;5.406;2024-01-15T18:31:27;100628.63;;;-0.31;100.00
54042;BME280;41156;51.508;5.406;2024-01-15T18:34:28;100627.34;;;-0.27;100.00
54042;BME280;41156;51.508;5.406;2024-01-15T18:37:28;100630.38;;;-0.22;100.00
54042;BME280;41156;51.508;5.406;2024-01-15T18:40:28;100631.75;;;-0.18;100.00
54042;BME280;41156;51.508;5.406;2024-01-15T18:43:34;100626.16;;;-0.15;100.00
54042;BME280;41156;51.508;5.406;2024-01-15T18:46:35;100626.16;;;-0.15;100.00
54042;BME280;41156;51.508;5.406;2024-01-15T18:49:35;100637.06;;;-0.18;100.00
54042;BME280;41156;51.508;5.406;2024-01-15T18:52:36;100629.84;;;-0.26;100.00
54042;BME280;41156;51.508;5.406;2024-01-15T18:55:36;100629.78;;;-0.16;100.00
54042;BME280;41156;51.508;5.406;2024-01-15T18:58:36;100624.47;;;-0.16;100.00
54042;BME280;41156;51.508;5.406;2024-01-15T19:01:42;100637.38;;;-0.21;100.00
54042;BME280;41156;51.508;5.406;2024-01-15T19:04:43;100640.31;;;-0.24;100.00
54042;BME280;41156;51.508;5.406;2024-01-15T19:07:44;100632.66;;;-0.27;100.00
54042;BME280;41156;51.508;5.406;2024-01-15T19:10:46;100636.31;;;-0.28;100.00
54042;BME280;41156;51.508;5.406;2024-01-15T19:13:47;100636.31;;;-0.28;100.00
54042;BME280;41156;51.508;5.406;2024-01-15T19:16:47;100657.06;;;-0.24;100.00
54042;BME280;41156;51.508;5.406;2024-01-15T19:19:48;100665.09;;;-0.33;100.00
54042;BME280;41156;51.508;5.406;2024-01-15T19:22:51;100669.97;;;-0.29;100.00
54042;BME280;41156;51.508;5.406;2024-01-15T19:25:52;100664.22;;;-0.24;100.00
54042;BME280;41156;51.508;5.406;2024-01-15T19:29:04;100670.06;;;-0.21;100.00
54042;BME280;41156;51.508;5.406;2024-01-15T19:32:07;100672.56;;;-0.19;100.00
54042;BME280;41156;51.508;5.406;2024-01-15T19:35:11;100672.44;;;-0.17;100.00
54042;BME280;41156;51.508;5.406;2024-01-15T19:38:11;100673.09;;;-0.15;100.00
54042;BME280;41156;51.508;5.406;2024-01-15T19:41:11;100670.44;;;-0.15;100.00
54042;BME280;41156;51.508;5.406;2024-01-15T19:44:11;100673.78;;;-0.13;100.00
54042;BME280;41156;51.508;5.406;2024-01-15T19:47:12;100679.97;;;-0.13;100.00
54042;BME280;41156;51.508;5.406;2024-01-15T19:50:12;100672.44;;;-0.17;100.00
54042;BME280;41156;51.508;5.406;2024-01-15T19:53:12;100679.72;;;-0.20;100.00
54042;BME280;41156;51.508;5.406;2024-01-15T19:56:13;100677.88;;;-0.19;100.00
54042;BME280;41156;51.508;5.406;2024-01-15T19:59:17;100678.72;;;-0.19;100.00
54042;BME280;41156;51.508;5.406;2024-01-15T20:02:17;100666.97;;;-0.16;100.00
54042;BME280;41156;51.508;5.406;2024-01-15T20:05:18;100669.63;;;-0.16;100.00
54042;BME280;41156;51.508;5.406;2024-01-15T20:08:18;100676.91;;;-0.18;100.00
54042;BME280;41156;51.508;5.406;2024-01-15T20:11:18;100675.09;;;-0.17;100.00
54042;BME280;41156;51.508;5.406;2024-01-15T20:14:19;100681.22;;;-0.17;100.00
54042;BME280;41156;51.508;5.406;2024-01-15T20:17:19;100682.06;;;-0.16;100.00
54042;BME280;41156;51.508;5.406;2024-01-15T20:20:19;100690.19;;;-0.18;100.00
54042;BME280;41156;51.508;5.406;2024-01-15T20:23:19;100692.84;;;-0.18;100.00
54042;BME280;41156;51.508;5.406;2024-01-15T20:26:20;100694.53;;;-0.45;100.00
54042;BME280;41156;51.508;5.406;2024-01-15T20:29:20;100683.44;;;-0.68;100.00
54042;BME280;41156;51.508;5.406;2024-01-15T20:32:20;100687.94;;;-0.78;100.00
54042;BME280;41156;51.508;5.406;2024-01-15T20:35:21;100691.16;;;-0.84;100.00
54042;BME280;41156;51.508;5.406;2024-01-15T20:38:21;100695.22;;;-0.90;100.00
54042;BME280;41156;51.508;5.406;2024-01-15T20:41:22;100696.06;;;-0.89;100.00
54042;BME280;41156;51.508;5.406;2024-01-15T20:44:22;100696.75;;;-0.87;100.00
54042;BME280;41156;51.508;5.406;2024-01-15T20:47:24;100700.94;;;-0.85;100.00
54042;BME280;41156;51.508;5.406;2024-01-15T20:50:24;100705.94;;;-0.82;100.00
54042;BME280;41156;51.508;5.406;2024-01-15T20:53:25;100711.56;;;-0.85;100.00
54042;BME280;41156;51.508;5.406;2024-01-15T20:56:25;100713.66;;;-0.88;100.00
54042;BME280;41156;51.508;5.406;2024-01-15T20:59:25;100723.44;;;-0.89;100.00
54042;BME280;41156;51.508;5.406;2024-01-15T21:02:26;100727.03;;;-0.90;100.00
54042;BME280;41156;51.508;5.406;2024-01-15T21:05:26;100732.06;;;-0.87;100.00